^^
Station Historical Data
Daily Summary for July 11, 2017 Units:  English    Metric   Both
« Previous Day
Next Day »
Daily Weekly Monthly Yearly Custom
  High: Low: Average:
Temperature: 83.8 °F 69.2 °F 76.4 °F
Dew Point: 72.3 °F 67.4 °F 70.2 °F
Humidity: 96% 67% 82%
Wind Speed: 6.0mph 0.0mph 1.1mph
Wind Gust: 14.0mph - -
Wind- - SSW
Pressure: 29.98 in 29.91 in -
Precipitation: 0.48 in    
Historical Graphs
 
 
Tabular Data for July 11, 2017
Time Temperature Dew Point Pressure Wind Wind Speed Wind Gust Humidity Rainfall Rate (Hourly) Conditions
00:00 72.4 °F 68.3 °F 29.98 in SSW 2.0 mph 7.0 mph 87% 0.00 in RA
00:15 72.0 °F 68.0 °F 29.98 in Calm   3.0 mph 87% 0.00 in -DZ
00:30 72.5 °F 67.4 °F 29.98 in South 2.0 mph 5.0 mph 84% 0.00 in -DZ
00:45 72.7 °F 67.6 °F 29.97 in SSW 2.0 mph 7.0 mph 84% 0.00 in -DZ
01:00 73.0 °F 67.9 °F 29.97 in South 2.0 mph 5.0 mph 84% 0.00 in -DZ
01:15 73.0 °F 67.9 °F 29.96 in SSW 2.0 mph 6.0 mph 84% 0.00 in -RA
01:30 73.0 °F 68.2 °F 29.96 in South 1.0 mph 5.0 mph 85% 0.00 in -RA
01:45 73.0 °F 68.2 °F 29.96 in Calm   4.0 mph 85% 0.00 in -RA
02:00 72.9 °F 68.5 °F 29.95 in Calm   2.0 mph 86% 0.00 in -RA
02:15 72.8 °F 68.4 °F 29.95 in Calm   2.0 mph 86% 0.00 in BKN
02:30 72.6 °F 68.5 °F 29.94 in Calm   1.0 mph 87% 0.00 in BKN
02:45 72.2 °F 68.4 °F 29.94 in Calm     88% 0.00 in BKN
03:00 71.8 °F 68.7 °F 29.94 in Calm   1.0 mph 90% 0.00 in BKN
03:15 71.7 °F 68.9 °F 29.93 in Calm   1.0 mph 91% 0.00 in BKN
03:30 71.8 °F 69.3 °F 29.93 in Calm   1.0 mph 92% 0.00 in BKN
03:45 71.6 °F 69.5 °F 29.92 in Calm     93% 0.00 in BKN
04:00 71.4 °F 69.6 °F 29.94 in SSW 1.0 mph 4.0 mph 94% 0.07 in RA
04:15 70.9 °F 69.1 °F 29.95 in SSW 3.0 mph 8.0 mph 94% 0.27 in -RA
04:30 69.7 °F 67.6 °F 29.92 in Calm   6.0 mph 93% 0.14 in -RA
04:45 69.4 °F 67.6 °F 29.92 in Calm   2.0 mph 94% 0.00 in -RA
05:00 69.2 °F 67.4 °F 29.91 in Calm   2.0 mph 94% 0.00 in -RA
05:15 69.3 °F 67.5 °F 29.92 in Calm   1.0 mph 94% 0.00 in BKN
05:30 69.7 °F 68.2 °F 29.92 in Calm   1.0 mph 95% 0.00 in BKN
05:45 70.1 °F 68.6 °F 29.92 in Calm   1.0 mph 95% 0.00 in BKN
06:00 70.3 °F 68.8 °F 29.93 in Calm   3.0 mph 95% 0.00 in BKN
06:15 70.2 °F 68.7 °F 29.93 in NNE 1.0 mph 5.0 mph 95% 0.00 in OVC
06:30 70.2 °F 68.7 °F 29.93 in Calm   4.0 mph 95% 0.00 in OVC
06:45 70.5 °F 69.3 °F 29.93 in Calm   1.0 mph 96% 0.00 in OVC
07:00 70.6 °F 69.4 °F 29.93 in Calm     96% 0.00 in OVC
07:15 70.8 °F 69.6 °F 29.94 in Calm     96% 0.00 in SCT
07:30 71.0 °F 69.8 °F 29.94 in Calm   1.0 mph 96% 0.00 in SCT
07:45 71.4 °F 70.2 °F 29.94 in Calm   3.0 mph 96% 0.00 in SCT
08:00 72.7 °F 71.2 °F 29.94 in SW 2.0 mph 4.0 mph 95% 0.00 in SCT
08:15 74.3 °F 71.8 °F 29.94 in South 1.0 mph 6.0 mph 92% 0.00 in FEW
08:30 75.1 °F 71.9 °F 29.94 in SSW 2.0 mph 5.0 mph 90% 0.00 in FEW
08:45 74.3 °F 71.2 °F 29.94 in South 2.0 mph 6.0 mph 90% 0.00 in FEW
09:00 75.0 °F 71.9 °F 29.94 in South 1.0 mph 7.0 mph 90% 0.00 in FEW
09:15 75.8 °F 72.0 °F 29.95 in Calm   5.0 mph 88% 0.00 in SCT
09:30 76.8 °F 72.0 °F 29.94 in Calm   10.0 mph 85% 0.00 in SCT
09:45 77.2 °F 70.9 °F 29.95 in SSW 2.0 mph 8.0 mph 81% 0.00 in SCT
10:00 76.1 °F 69.8 °F 29.94 in SSE 1.0 mph 8.0 mph 81% 0.00 in SCT
10:15 76.6 °F 71.0 °F 29.95 in SSW 1.0 mph 3.0 mph 83% 0.00 in SCT
10:30 78.8 °F 71.3 °F 29.95 in SSE 2.0 mph 7.0 mph 78% 0.00 in SCT
10:45 78.6 °F 70.4 °F 29.94 in SW 3.0 mph 8.0 mph 76% 0.00 in SCT
11:00 79.4 °F 70.0 °F 29.94 in SW 2.0 mph 9.0 mph 73% 0.00 in SCT
11:15 80.5 °F 70.7 °F 29.94 in SW 3.0 mph 8.0 mph 72% 0.00 in SCT
11:30 79.9 °F 70.0 °F 29.95 in SSW 6.0 mph 10.0 mph 72% 0.00 in SCT
11:45 79.8 °F 69.6 °F 29.95 in SW 5.0 mph 12.0 mph 71% 0.00 in SCT
12:00 79.7 °F 69.5 °F 29.95 in SW 6.0 mph 12.0 mph 71% 0.00 in SCT
12:15 80.8 °F 69.2 °F 29.94 in SW 6.0 mph 11.0 mph 68% 0.00 in SCT
12:30 81.3 °F 69.7 °F 29.94 in SSW 3.0 mph 12.0 mph 68% 0.00 in SCT
12:45 80.7 °F 70.4 °F 29.95 in SW 5.0 mph 14.0 mph 71% 0.00 in SCT
13:00 80.1 °F 70.7 °F 29.95 in SW 1.0 mph 12.0 mph 73% 0.00 in SCT
13:15 81.0 °F 70.3 °F 29.94 in SW 5.0 mph 12.0 mph 70% 0.00 in BKN
13:30 81.4 °F 70.3 °F 29.94 in SW 3.0 mph 10.0 mph 69% 0.00 in BKN
13:45 81.0 °F 70.7 °F 29.94 in SW 2.0 mph 7.0 mph 71% 0.00 in BKN
14:00 80.9 °F 70.6 °F 29.94 in SW 2.0 mph 10.0 mph 71% 0.00 in BKN
14:15 80.6 °F 70.3 °F 29.94 in SW 1.0 mph 5.0 mph 71% 0.00 in BKN
14:30 79.9 °F 70.5 °F 29.94 in Calm   6.0 mph 73% 0.00 in BKN
14:45 80.3 °F 71.3 °F 29.94 in SSW 2.0 mph 5.0 mph 74% 0.00 in BKN
15:00 80.8 °F 71.3 °F 29.94 in Calm   3.0 mph 73% 0.00 in BKN
15:15 81.0 °F 71.5 °F 29.94 in SW 1.0 mph 3.0 mph 73% 0.00 in BKN
15:30 81.3 °F 71.8 °F 29.94 in WSW 2.0 mph 3.0 mph 73% 0.00 in BKN
15:45 81.3 °F 71.4 °F 29.94 in SSW 1.0 mph 5.0 mph 72% 0.00 in BKN
16:00 81.5 °F 71.1 °F 29.94 in SW 3.0 mph 10.0 mph 71% 0.00 in BKN
16:15 81.2 °F 70.5 °F 29.94 in SW 1.0 mph 8.0 mph 70% 0.00 in BKN
16:30 81.2 °F 70.5 °F 29.93 in WSW 2.0 mph 10.0 mph 70% 0.00 in BKN
16:45 81.5 °F 71.6 °F 29.93 in Calm   3.0 mph 72% 0.00 in BKN
17:00 82.5 °F 71.3 °F 29.93 in SW 1.0 mph 3.0 mph 69% 0.00 in BKN
17:15 83.5 °F 71.4 °F 29.93 in West 1.0 mph 4.0 mph 67% 0.00 in BKN
17:30 82.7 °F 71.5 °F 29.92 in Calm   4.0 mph 69% 0.00 in BKN
17:45 83.7 °F 72.0 °F 29.92 in Calm   3.0 mph 68% 0.00 in BKN
18:00 83.1 °F 71.9 °F 29.93 in SSW 2.0 mph 6.0 mph 69% 0.00 in BKN
18:15 83.8 °F 72.1 °F 29.93 in Calm   3.0 mph 68% 0.00 in BKN
18:30 83.3 °F 71.6 °F 29.93 in WSW 1.0 mph 3.0 mph 68% 0.00 in BKN
18:45 82.7 °F 72.3 °F 29.93 in Calm   4.0 mph 71% 0.00 in BKN
19:00 81.6 °F 71.7 °F 29.94 in Calm   2.0 mph 72% 0.00 in BKN
19:15 81.2 °F 71.7 °F 29.94 in NNE 1.0 mph 3.0 mph 73% 0.00 in BKN
19:30 81.0 °F 71.9 °F 29.95 in Calm   2.0 mph 74% 0.00 in BKN
19:45 80.7 °F 72.0 °F 29.95 in Calm   1.0 mph 75% 0.00 in BKN
20:00 80.2 °F 71.9 °F 29.95 in Calm   1.0 mph 76% 0.00 in BKN
20:15 79.3 °F 71.8 °F 29.95 in Calm     78% 0.00 in BKN
20:30 78.9 °F 71.8 °F 29.94 in Calm     79% 0.00 in BKN
20:45 78.2 °F 71.5 °F 29.94 in Calm   1.0 mph 80% 0.00 in BKN
21:00 77.6 °F 71.3 °F 29.94 in Calm     81% 0.00 in BKN
21:15 77.3 °F 71.3 °F 29.94 in Calm     82% 0.00 in FEW
21:30 76.4 °F 70.8 °F 29.95 in Calm     83% 0.00 in FEW
21:45 75.5 °F 70.7 °F 29.96 in Calm     85% 0.00 in FEW
22:00 74.8 °F 70.7 °F 29.96 in Calm     87% 0.00 in FEW
22:15 74.4 °F 70.6 °F 29.96 in Calm     88% 0.00 in CLR
22:30 74.0 °F 70.6 °F 29.95 in Calm     89% 0.00 in CLR
22:45 73.7 °F 70.6 °F 29.95 in Calm     90% 0.00 in CLR
23:00 73.7 °F 70.3 °F 29.95 in Calm     89% 0.00 in CLR
23:15 73.3 °F 70.2 °F 29.94 in Calm     90% 0.00 in CLR
23:30 73.5 °F 70.4 °F 29.94 in Calm   1.0 mph 90% 0.00 in CLR
23:45 73.3 °F 70.2 °F 29.95 in Calm     90% 0.00 in CLR
TarryTown NY Weather
Compliments of Weather Underground - 1.5 mb